Leon Corners, Illinois
Current Conditions -  °F | °C
As of 6:15 PM on Friday 28 Nov 2014 (Local Time) from KSQI Reporting Station
Clear Clear  
Wind Chill: -2°   Ceiling: Unl
Heat Index:   Visibility: 10mi
Dew Point: -2°   Wind: 7mph
Humidity: 81%   Direction: 150°SSE
Pressure: 29.89"   Gusts: NA
Location:  41.5909°N, 89.9498°W
Report Text: KSQI 290015Z 15006KT 10SM CLR 01/M02 A2989 RMK AO1
Loading
Personal Weather Stations






























Interactive Weather Map New forecast layout! Learn more

10-Day Weather Forecast

Advertisements
Track Severe Weather on mobile